^^
Station Historical Data
Daily Summary for April 16, 2018 Units:  Both    English   Metric
« Previous Day
Next Day »
Daily Weekly Monthly Yearly Custom
  High: Low: Average:
Temperature: 42.1 °F /  5.6 °C 19.4 °F /  -7 °C 30.9 °F /  -0.6 °C
Dew Point: 26.4 °F /  -3.1 °C 14.5 °F /  -9.7 °C 20.5 °F /  -6.4 °C
Humidity: 88% 43% 67%
Wind Speed: 24.0mph /  38.6km/h - 11.1mph /  17.9km/h
Wind Gust: 30.0mph /  48.3km/h - -
Wind- - ESE
Pressure: 30.27 in /  1024.9 hPa 29.99 in /  1015.5 hPa -
Precipitation: 0.00 in /  0 mm    
Historical Graphs
 
 
Tabular Data for April 16, 2018
Time Temperature Dew Point Pressure Wind Wind Speed Wind Gust Humidity Rainfall Rate (Hourly) solar Conditions
00:00 24.9 °F /  -3.9 °C 18.4 °F /  -7.6 °C 30.26in /  1024.6hPa East 6.0mph /  9.7km/h 10.0mph /  16.1km/h 76% 0.00in /  0mm 0 W/m2
00:05 24.8 °F /  -4 °C 18.6 °F /  -7.4 °C 30.27in /  1024.9hPa East 6.0mph /  9.7km/h 9.0mph /  14.5km/h 77% 0.00in /  0mm 0 W/m2
00:10 24.8 °F /  -4 °C 18.6 °F /  -7.4 °C 30.27in /  1024.9hPa East 6.0mph /  9.7km/h 8.0mph /  12.9km/h 77% 0.00in /  0mm 0 W/m2
00:15 24.8 °F /  -4 °C 18.6 °F /  -7.4 °C 30.27in /  1024.9hPa East 7.0mph /  11.3km/h 8.0mph /  12.9km/h 77% 0.00in /  0mm 0 W/m2
00:20 24.7 °F /  -4.1 °C 18.5 °F /  -7.5 °C 30.26in /  1024.6hPa East 7.0mph /  11.3km/h 8.0mph /  12.9km/h 77% 0.00in /  0mm 0 W/m2
00:25 24.5 °F /  -4.2 °C 18.3 °F /  -7.6 °C 30.27in /  1024.9hPa East 6.0mph /  9.7km/h 8.0mph /  12.9km/h 77% 0.00in /  0mm 0 W/m2
00:30 24.4 °F /  -4.2 °C 18.5 °F /  -7.5 °C 30.27in /  1024.9hPa East 8.0mph /  12.9km/h 9.0mph /  14.5km/h 78% 0.00in /  0mm 0 W/m2
00:35 24.3 °F /  -4.3 °C 18.4 °F /  -7.6 °C 30.27in /  1024.9hPa East 8.0mph /  12.9km/h 9.0mph /  14.5km/h 78% 0.00in /  0mm 0 W/m2
00:40 24.2 °F /  -4.3 °C 18.3 °F /  -7.6 °C 30.27in /  1024.9hPa East 7.0mph /  11.3km/h 9.0mph /  14.5km/h 78% 0.00in /  0mm 0 W/m2
00:46 24.1 °F /  -4.4 °C 18.5 °F /  -7.5 °C 30.27in /  1024.9hPa East 6.0mph /  9.7km/h 8.0mph /  12.9km/h 79% 0.00in /  0mm 0 W/m2
00:51 24.1 °F /  -4.4 °C 18.5 °F /  -7.5 °C 30.27in /  1024.9hPa East 6.0mph /  9.7km/h 8.0mph /  12.9km/h 79% 0.00in /  0mm 0 W/m2
00:56 24.0 °F /  -4.4 °C 18.4 °F /  -7.6 °C 30.27in /  1024.9hPa East 6.0mph /  9.7km/h 8.0mph /  12.9km/h 79% 0.00in /  0mm 0 W/m2
01:01 23.9 °F /  -4.5 °C 18.6 °F /  -7.4 °C 30.26in /  1024.6hPa East 6.0mph /  9.7km/h 8.0mph /  12.9km/h 80% 0.00in /  0mm 0 W/m2
01:06 23.7 °F /  -4.6 °C 18.4 °F /  -7.6 °C 30.26in /  1024.6hPa East 7.0mph /  11.3km/h 8.0mph /  12.9km/h 80% 0.00in /  0mm 0 W/m2
01:11 23.6 °F /  -4.7 °C 18.3 °F /  -7.6 °C 30.26in /  1024.6hPa East 8.0mph /  12.9km/h 9.0mph /  14.5km/h 80% 0.00in /  0mm 0 W/m2
01:16 23.4 °F /  -4.8 °C 18.1 °F /  -7.7 °C 30.26in /  1024.6hPa East 8.0mph /  12.9km/h 10.0mph /  16.1km/h 80% 0.00in /  0mm 0 W/m2
01:21 23.4 °F /  -4.8 °C 18.4 °F /  -7.6 °C 30.26in /  1024.6hPa ESE 9.0mph /  14.5km/h 10.0mph /  16.1km/h 81% 0.00in /  0mm 0 W/m2
01:26 23.4 °F /  -4.8 °C 18.4 °F /  -7.6 °C 30.26in /  1024.6hPa East 7.0mph /  11.3km/h 10.0mph /  16.1km/h 81% 0.00in /  0mm 0 W/m2
01:31 23.2 °F /  -4.9 °C 18.2 °F /  -7.7 °C 30.25in /  1024.3hPa East 9.0mph /  14.5km/h 10.0mph /  16.1km/h 81% 0.00in /  0mm 0 W/m2
01:36 22.9 °F /  -5.1 °C 17.9 °F /  -7.8 °C 30.25in /  1024.3hPa East 10.0mph /  16.1km/h 13.0mph /  20.9km/h 81% 0.00in /  0mm 0 W/m2
01:41 22.8 °F /  -5.1 °C 18.1 °F /  -7.7 °C 30.25in /  1024.3hPa East 9.0mph /  14.5km/h 13.0mph /  20.9km/h 82% 0.00in /  0mm 0 W/m2
01:46 22.7 °F /  -5.2 °C 18.0 °F /  -7.8 °C 30.24in /  1023.9hPa East 11.0mph /  17.7km/h 14.0mph /  22.5km/h 82% 0.00in /  0mm 0 W/m2
01:51 22.7 °F /  -5.2 °C 18.3 °F /  -7.6 °C 30.24in /  1023.9hPa East 13.0mph /  20.9km/h 15.0mph /  24.1km/h 83% 0.00in /  0mm 0 W/m2
01:56 22.8 °F /  -5.1 °C 18.1 °F /  -7.7 °C 30.23in /  1023.6hPa East 9.0mph /  14.5km/h 16.0mph /  25.7km/h 82% 0.00in /  0mm 0 W/m2
02:01 23.1 °F /  -4.9 °C 18.4 °F /  -7.6 °C 30.23in /  1023.6hPa East 10.0mph /  16.1km/h 16.0mph /  25.7km/h 82% 0.00in /  0mm 0 W/m2
02:06 23.4 °F /  -4.8 °C 18.4 °F /  -7.6 °C 30.23in /  1023.6hPa ENE 13.0mph /  20.9km/h 16.0mph /  25.7km/h 81% 0.00in /  0mm 0 W/m2
02:11 23.7 °F /  -4.6 °C 18.4 °F /  -7.6 °C 30.23in /  1023.6hPa ENE 10.0mph /  16.1km/h 16.0mph /  25.7km/h 80% 0.00in /  0mm 0 W/m2
02:16 24.0 °F /  -4.4 °C 18.1 °F /  -7.7 °C 30.22in /  1023.2hPa East 9.0mph /  14.5km/h 15.0mph /  24.1km/h 78% 0.00in /  0mm 0 W/m2
02:21 24.1 °F /  -4.4 °C 17.9 °F /  -7.8 °C 30.23in /  1023.6hPa ESE 11.0mph /  17.7km/h 15.0mph /  24.1km/h 77% 0.00in /  0mm 0 W/m2
02:26 24.2 °F /  -4.3 °C 18.0 °F /  -7.8 °C 30.23in /  1023.6hPa ESE 8.0mph /  12.9km/h 14.0mph /  22.5km/h 77% 0.00in /  0mm 0 W/m2
02:31 24.2 °F /  -4.3 °C 17.7 °F /  -7.9 °C 30.24in /  1023.9hPa ESE 7.0mph /  11.3km/h 14.0mph /  22.5km/h 76% 0.00in /  0mm 0 W/m2
02:36 24.1 °F /  -4.4 °C 17.6 °F /  -8 °C 30.24in /  1023.9hPa ESE 5.0mph /  8km/h 11.0mph /  17.7km/h 76% 0.00in /  0mm 0 W/m2
02:41 23.9 °F /  -4.5 °C 17.4 °F /  -8.1 °C 30.24in /  1023.9hPa ESE 7.0mph /  11.3km/h 11.0mph /  17.7km/h 76% 0.00in /  0mm 0 W/m2
02:46 23.6 °F /  -4.7 °C 17.4 °F /  -8.1 °C 30.24in /  1023.9hPa SE 3.0mph /  4.8km/h 10.0mph /  16.1km/h 77% 0.00in /  0mm 0 W/m2
02:51 23.2 °F /  -4.9 °C 17.1 °F /  -8.3 °C 30.24in /  1023.9hPa SW 4.0mph /  6.4km/h 8.0mph /  12.9km/h 77% 0.00in /  0mm 0 W/m2
02:56 21.7 °F /  -5.7 °C 15.3 °F /  -9.3 °C 30.25in /  1024.3hPa SW 4.0mph /  6.4km/h 7.0mph /  11.3km/h 76% 0.00in /  0mm 0 W/m2
03:01 20.9 °F /  -6.2 °C 15.1 °F /  -9.4 °C 30.25in /  1024.3hPa SSW 3.0mph /  4.8km/h 7.0mph /  11.3km/h 78% 0.00in /  0mm 0 W/m2
03:06 20.7 °F /  -6.3 °C 15.5 °F /  -9.2 °C 30.25in /  1024.3hPa South 2.0mph /  3.2km/h 5.0mph /  8km/h 80% 0.00in /  0mm 0 W/m2
03:11 20.7 °F /  -6.3 °C 15.8 °F /  -9 °C 30.25in /  1024.3hPa SSE 3.0mph /  4.8km/h 4.0mph /  6.4km/h 81% 0.00in /  0mm 0 W/m2
03:16 20.8 °F /  -6.2 °C 15.9 °F /  -8.9 °C 30.25in /  1024.3hPa South 2.0mph /  3.2km/h 3.0mph /  4.8km/h 81% 0.00in /  0mm 0 W/m2
03:21 20.8 °F /  -6.2 °C 15.9 °F /  -8.9 °C 30.25in /  1024.3hPa SE 4.0mph /  6.4km/h 5.0mph /  8km/h 81% 0.00in /  0mm 0 W/m2
03:26 20.9 °F /  -6.2 °C 16.0 °F /  -8.9 °C 30.25in /  1024.3hPa SSE 1.0mph /  1.6km/h 5.0mph /  8km/h 81% 0.00in /  0mm 0 W/m2
03:31 20.9 °F /  -6.2 °C 16.0 °F /  -8.9 °C 30.24in /  1023.9hPa SE 2.0mph /  3.2km/h 5.0mph /  8km/h 81% 0.00in /  0mm 0 W/m2
03:36 21.0 °F /  -6.1 °C 16.1 °F /  -8.8 °C 30.24in /  1023.9hPa SE 3.0mph /  4.8km/h 3.0mph /  4.8km/h 81% 0.00in /  0mm 0 W/m2
03:41 21.0 °F /  -6.1 °C 16.1 °F /  -8.8 °C 30.25in /  1024.3hPa SE 2.0mph /  3.2km/h 3.0mph /  4.8km/h 81% 0.00in /  0mm 0 W/m2
03:46 21.1 °F /  -6.1 °C 16.2 °F /  -8.8 °C 30.24in /  1023.9hPa SE 2.0mph /  3.2km/h 3.0mph /  4.8km/h 81% 0.00in /  0mm 0 W/m2
03:51 21.2 °F /  -6 °C 16.0 °F /  -8.9 °C 30.24in /  1023.9hPa East 3.0mph /  4.8km/h 5.0mph /  8km/h 80% 0.00in /  0mm 0 W/m2
03:56 21.1 °F /  -6.1 °C 15.9 °F /  -8.9 °C 30.24in /  1023.9hPa East 5.0mph /  8km/h 6.0mph /  9.7km/h 80% 0.00in /  0mm 0 W/m2
04:01 21.1 °F /  -6.1 °C 15.9 °F /  -8.9 °C 30.24in /  1023.9hPa East 3.0mph /  4.8km/h 6.0mph /  9.7km/h 80% 0.00in /  0mm 0 W/m2
04:06 21.0 °F /  -6.1 °C 15.8 °F /  -9 °C 30.24in /  1023.9hPa ESE 3.0mph /  4.8km/h 6.0mph /  9.7km/h 80% 0.00in /  0mm 0 W/m2
04:11 20.8 °F /  -6.2 °C 15.6 °F /  -9.1 °C 30.24in /  1023.9hPa ESE 5.0mph /  8km/h 6.0mph /  9.7km/h 80% 0.00in /  0mm 0 W/m2
04:16 20.7 °F /  -6.3 °C 15.8 °F /  -9 °C 30.24in /  1023.9hPa East 5.0mph /  8km/h 7.0mph /  11.3km/h 81% 0.00in /  0mm 0 W/m2
04:21 20.7 °F /  -6.3 °C 15.8 °F /  -9 °C 30.24in /  1023.9hPa East 5.0mph /  8km/h 7.0mph /  11.3km/h 81% 0.00in /  0mm 0 W/m2
04:26 20.5 °F /  -6.4 °C 15.6 °F /  -9.1 °C 30.24in /  1023.9hPa ESE 3.0mph /  4.8km/h 6.0mph /  9.7km/h 81% 0.00in /  0mm 0 W/m2
04:31 20.4 °F /  -6.4 °C 17.4 °F /  -8.1 °C 30.24in /  1023.9hPa East 6.0mph /  9.7km/h 6.0mph /  9.7km/h 88% 0.00in /  0mm 0 W/m2
04:36 20.3 °F /  -6.5 °C 15.4 °F /  -9.2 °C 30.24in /  1023.9hPa East 6.0mph /  9.7km/h 7.0mph /  11.3km/h 81% 0.00in /  0mm 0 W/m2
04:41 20.3 °F /  -6.5 °C 15.4 °F /  -9.2 °C 30.23in /  1023.6hPa East 6.0mph /  9.7km/h 7.0mph /  11.3km/h 81% 0.00in /  0mm 0 W/m2
04:46 20.2 °F /  -6.6 °C 15.3 °F /  -9.3 °C 30.24in /  1023.9hPa East 6.0mph /  9.7km/h 8.0mph /  12.9km/h 81% 0.00in /  0mm 0 W/m2
04:51 20.2 °F /  -6.6 °C 15.3 °F /  -9.3 °C 30.23in /  1023.6hPa East 8.0mph /  12.9km/h 9.0mph /  14.5km/h 81% 0.00in /  0mm 0 W/m2
04:56 20.2 °F /  -6.6 °C 15.3 °F /  -9.3 °C 30.23in /  1023.6hPa East 8.0mph /  12.9km/h 9.0mph /  14.5km/h 81% 0.00in /  0mm 0 W/m2
05:01 20.1 °F /  -6.6 °C 15.2 °F /  -9.3 °C 30.23in /  1023.6hPa East 7.0mph /  11.3km/h 9.0mph /  14.5km/h 81% 0.00in /  0mm 0 W/m2
05:06 20.1 °F /  -6.6 °C 15.2 °F /  -9.3 °C 30.23in /  1023.6hPa East 6.0mph /  9.7km/h 8.0mph /  12.9km/h 81% 0.00in /  0mm 0 W/m2
05:11 20.0 °F /  -6.7 °C 15.1 °F /  -9.4 °C 30.23in /  1023.6hPa East 6.0mph /  9.7km/h 8.0mph /  12.9km/h 81% 0.00in /  0mm 0 W/m2
05:16 20.1 °F /  -6.6 °C 15.2 °F /  -9.3 °C 30.23in /  1023.6hPa East 6.0mph /  9.7km/h 8.0mph /  12.9km/h 81% 0.00in /  0mm 0 W/m2
05:21 20.1 °F /  -6.6 °C 15.2 °F /  -9.3 °C 30.23in /  1023.6hPa ESE 7.0mph /  11.3km/h 7.0mph /  11.3km/h 81% 0.00in /  0mm 0 W/m2
05:26 20.1 °F /  -6.6 °C 15.2 °F /  -9.3 °C 30.23in /  1023.6hPa East 5.0mph /  8km/h 7.0mph /  11.3km/h 81% 0.00in /  0mm 0 W/m2
05:31 20.0 °F /  -6.7 °C 15.1 °F /  -9.4 °C 30.22in /  1023.2hPa East 5.0mph /  8km/h 6.0mph /  9.7km/h 81% 0.00in /  0mm 0 W/m2
05:36 19.9 °F /  -6.7 °C 15.0 °F /  -9.4 °C 30.22in /  1023.2hPa East 5.0mph /  8km/h 6.0mph /  9.7km/h 81% 0.00in /  0mm 0 W/m2
05:41 20.0 °F /  -6.7 °C 15.1 °F /  -9.4 °C 30.22in /  1023.2hPa East 6.0mph /  9.7km/h 6.0mph /  9.7km/h 81% 0.00in /  0mm 0 W/m2
05:46 20.2 °F /  -6.6 °C 15.3 °F /  -9.3 °C 30.22in /  1023.2hPa East 6.0mph /  9.7km/h 7.0mph /  11.3km/h 81% 0.00in /  0mm 0 W/m2
05:51 20.3 °F /  -6.5 °C 15.1 °F /  -9.4 °C 30.22in /  1023.2hPa East 3.0mph /  4.8km/h 7.0mph /  11.3km/h 80% 0.00in /  0mm 0 W/m2
05:56 20.2 °F /  -6.6 °C 15.0 °F /  -9.4 °C 30.22in /  1023.2hPa East 5.0mph /  8km/h 6.0mph /  9.7km/h 80% 0.00in /  0mm 0 W/m2
06:01 20.0 °F /  -6.7 °C 14.8 °F /  -9.6 °C 30.22in /  1023.2hPa East 6.0mph /  9.7km/h 6.0mph /  9.7km/h 80% 0.00in /  0mm 0 W/m2
06:06 19.9 °F /  -6.7 °C 14.7 °F /  -9.6 °C 30.22in /  1023.2hPa East 6.0mph /  9.7km/h 7.0mph /  11.3km/h 80% 0.00in /  0mm 0 W/m2
06:11 19.8 °F /  -6.8 °C 14.6 °F /  -9.7 °C 30.22in /  1023.2hPa East 5.0mph /  8km/h 7.0mph /  11.3km/h 80% 0.00in /  0mm 0 W/m2
06:16 19.6 °F /  -6.9 °C 14.7 °F /  -9.6 °C 30.22in /  1023.2hPa East 3.0mph /  4.8km/h 6.0mph /  9.7km/h 81% 0.00in /  0mm 0 W/m2
06:21 19.4 °F /  -7 °C 14.5 °F /  -9.7 °C 30.22in /  1023.2hPa East 5.0mph /  8km/h 6.0mph /  9.7km/h 81% 0.00in /  0mm 0 W/m2
06:26 19.4 °F /  -7 °C 14.5 °F /  -9.7 °C 30.22in /  1023.2hPa East 5.0mph /  8km/h 5.0mph /  8km/h 81% 0.00in /  0mm 0 W/m2
06:31 19.4 °F /  -7 °C 14.5 °F /  -9.7 °C 30.22in /  1023.2hPa East 5.0mph /  8km/h 5.0mph /  8km/h 81% 0.00in /  0mm 0 W/m2
06:36 19.5 °F /  -6.9 °C 14.9 °F /  -9.5 °C 30.22in /  1023.2hPa East 5.0mph /  8km/h 5.0mph /  8km/h 82% 0.00in /  0mm 0 W/m2
06:41 19.6 °F /  -6.9 °C 15.0 °F /  -9.4 °C 30.21in /  1022.9hPa East 6.0mph /  9.7km/h 6.0mph /  9.7km/h 82% 0.00in /  0mm 0 W/m2
06:46 19.5 °F /  -6.9 °C 14.6 °F /  -9.7 °C 30.21in /  1022.9hPa East 7.0mph /  11.3km/h 7.0mph /  11.3km/h 81% 0.00in /  0mm 0 W/m2
06:51 19.6 °F /  -6.9 °C 15.0 °F /  -9.4 °C 30.21in /  1022.9hPa East 5.0mph /  8km/h 7.0mph /  11.3km/h 82% 0.00in /  0mm 5 W/m2
06:56 19.7 °F /  -6.8 °C 15.1 °F /  -9.4 °C 30.21in /  1022.9hPa East 5.0mph /  8km/h 7.0mph /  11.3km/h 82% 0.00in /  0mm 7 W/m2
07:01 19.8 °F /  -6.8 °C 14.9 °F /  -9.5 °C 30.21in /  1022.9hPa ENE 4.0mph /  6.4km/h 7.0mph /  11.3km/h 81% 0.00in /  0mm 11 W/m2
07:06 19.7 °F /  -6.8 °C 14.8 °F /  -9.6 °C 30.21in /  1022.9hPa East 5.0mph /  8km/h 7.0mph /  11.3km/h 81% 0.00in /  0mm 12 W/m2
07:11 19.8 °F /  -6.8 °C 15.2 °F /  -9.3 °C 30.21in /  1022.9hPa East 6.0mph /  9.7km/h 7.0mph /  11.3km/h 82% 0.00in /  0mm 16 W/m2
07:16 19.9 °F /  -6.7 °C 15.3 °F /  -9.3 °C 30.21in /  1022.9hPa East 6.0mph /  9.7km/h 7.0mph /  11.3km/h 82% 0.00in /  0mm 19 W/m2
07:21 19.8 °F /  -6.8 °C 15.2 °F /  -9.3 °C 30.21in /  1022.9hPa East 5.0mph /  8km/h 7.0mph /  11.3km/h 82% 0.00in /  0mm 21 W/m2
07:26 19.8 °F /  -6.8 °C 15.2 °F /  -9.3 °C 30.20in /  1022.6hPa East 6.0mph /  9.7km/h 7.0mph /  11.3km/h 82% 0.00in /  0mm 23 W/m2
07:31 19.9 °F /  -6.7 °C 15.3 °F /  -9.3 °C 30.20in /  1022.6hPa East 5.0mph /  8km/h 6.0mph /  9.7km/h 82% 0.00in /  0mm 26 W/m2
07:36 19.9 °F /  -6.7 °C 15.6 °F /  -9.1 °C 30.20in /  1022.6hPa East 3.0mph /  4.8km/h 6.0mph /  9.7km/h 83% 0.00in /  0mm 28 W/m2
07:41 20.0 °F /  -6.7 °C 15.7 °F /  -9.1 °C 30.20in /  1022.6hPa East 6.0mph /  9.7km/h 6.0mph /  9.7km/h 83% 0.00in /  0mm 32 W/m2
07:46 20.1 °F /  -6.6 °C 15.8 °F /  -9 °C 30.20in /  1022.6hPa East 5.0mph /  8km/h 6.0mph /  9.7km/h 83% 0.00in /  0mm 33 W/m2
07:51 20.5 °F /  -6.4 °C 16.2 °F /  -8.8 °C 30.21in /  1022.9hPa East 3.0mph /  4.8km/h 6.0mph /  9.7km/h 83% 0.00in /  0mm 35 W/m2
07:56 20.9 °F /  -6.2 °C 16.8 °F /  -8.4 °C 30.21in /  1022.9hPa SE 2.0mph /  3.2km/h 5.0mph /  8km/h 84% 0.00in /  0mm 39 W/m2
08:01 21.2 °F /  -6 °C 17.1 °F /  -8.3 °C 30.21in /  1022.9hPa SE 2.0mph /  3.2km/h 4.0mph /  6.4km/h 84% 0.00in /  0mm 40 W/m2
08:06 21.5 °F /  -5.8 °C 17.4 °F /  -8.1 °C 30.21in /  1022.9hPa ESE 4.0mph /  6.4km/h 4.0mph /  6.4km/h 84% 0.00in /  0mm 42 W/m2
08:11 21.9 °F /  -5.6 °C 17.8 °F /  -7.9 °C 30.21in /  1022.9hPa ESE 3.0mph /  4.8km/h 5.0mph /  8km/h 84% 0.00in /  0mm 44 W/m2
08:16 22.3 °F /  -5.4 °C 18.2 °F /  -7.7 °C 30.21in /  1022.9hPa ESE 2.0mph /  3.2km/h 5.0mph /  8km/h 84% 0.00in /  0mm 200 W/m2
08:21 22.9 °F /  -5.1 °C 18.8 °F /  -7.3 °C 30.21in /  1022.9hPa ESE 2.0mph /  3.2km/h 5.0mph /  8km/h 84% 0.00in /  0mm 220 W/m2
08:26 23.7 °F /  -4.6 °C 19.3 °F /  -7.1 °C 30.21in /  1022.9hPa ESE 2.0mph /  3.2km/h 5.0mph /  8km/h 83% 0.00in /  0mm 239 W/m2
08:31 24.1 °F /  -4.4 °C 19.1 °F /  -7.2 °C 30.21in /  1022.9hPa ESE 2.0mph /  3.2km/h 5.0mph /  8km/h 81% 0.00in /  0mm 255 W/m2
08:36 24.6 °F /  -4.1 °C 19.6 °F /  -6.9 °C 30.21in /  1022.9hPa ESE 2.0mph /  3.2km/h 5.0mph /  8km/h 81% 0.00in /  0mm 271 W/m2
08:41 24.9 °F /  -3.9 °C 19.6 °F /  -6.9 °C 30.21in /  1022.9hPa SE 4.0mph /  6.4km/h 7.0mph /  11.3km/h 80% 0.00in /  0mm 283 W/m2
08:46 25.3 °F /  -3.7 °C 20.0 °F /  -6.7 °C 30.21in /  1022.9hPa ESE 5.0mph /  8km/h 8.0mph /  12.9km/h 80% 0.00in /  0mm 294 W/m2
08:51 25.9 °F /  -3.4 °C 20.6 °F /  -6.3 °C 30.21in /  1022.9hPa ESE 7.0mph /  11.3km/h 9.0mph /  14.5km/h 80% 0.00in /  0mm 283 W/m2
08:56 26.3 °F /  -3.2 °C 20.4 °F /  -6.4 °C 30.20in /  1022.6hPa SE 8.0mph /  12.9km/h 11.0mph /  17.7km/h 78% 0.00in /  0mm 304 W/m2
09:01 26.9 °F /  -2.8 °C 21.0 °F /  -6.1 °C 30.20in /  1022.6hPa ESE 9.0mph /  14.5km/h 11.0mph /  17.7km/h 78% 0.00in /  0mm 336 W/m2
09:06 27.3 °F /  -2.6 °C 21.0 °F /  -6.1 °C 30.20in /  1022.6hPa ESE 10.0mph /  16.1km/h 11.0mph /  17.7km/h 77% 0.00in /  0mm 350 W/m2
09:11 27.6 °F /  -2.4 °C 21.0 °F /  -6.1 °C 30.20in /  1022.6hPa ESE 9.0mph /  14.5km/h 11.0mph /  17.7km/h 76% 0.00in /  0mm 364 W/m2
09:16 27.9 °F /  -2.3 °C 21.3 °F /  -5.9 °C 30.19in /  1022.2hPa ESE 7.0mph /  11.3km/h 12.0mph /  19.3km/h 76% 0.00in /  0mm 380 W/m2
09:21 28.1 °F /  -2.2 °C 21.5 °F /  -5.8 °C 30.19in /  1022.2hPa ESE 11.0mph /  17.7km/h 12.0mph /  19.3km/h 76% 0.00in /  0mm 396 W/m2
09:26 28.4 °F /  -2 °C 21.5 °F /  -5.8 °C 30.19in /  1022.2hPa ESE 8.0mph /  12.9km/h 12.0mph /  19.3km/h 75% 0.00in /  0mm 411 W/m2
09:31 29.0 °F /  -1.7 °C 22.1 °F /  -5.5 °C 30.19in /  1022.2hPa ESE 12.0mph /  19.3km/h 13.0mph /  20.9km/h 75% 0.00in /  0mm 427 W/m2
09:36 29.3 °F /  -1.5 °C 22.4 °F /  -5.3 °C 30.19in /  1022.2hPa SE 10.0mph /  16.1km/h 13.0mph /  20.9km/h 75% 0.00in /  0mm 441 W/m2
09:41 29.4 °F /  -1.4 °C 22.1 °F /  -5.5 °C 30.18in /  1021.9hPa SE 7.0mph /  11.3km/h 14.0mph /  22.5km/h 74% 0.00in /  0mm 459 W/m2
09:46 30.0 °F /  -1.1 °C 23.0 °F /  -5 °C 30.18in /  1021.9hPa SE 5.0mph /  8km/h 14.0mph /  22.5km/h 75% 0.00in /  0mm 471 W/m2
09:51 30.2 °F /  -1 °C 23.2 °F /  -4.9 °C 30.18in /  1021.9hPa SE 9.0mph /  14.5km/h 12.0mph /  19.3km/h 75% 0.00in /  0mm 487 W/m2
09:56 30.4 °F /  -0.9 °C 23.1 °F /  -4.9 °C 30.18in /  1021.9hPa ESE 9.0mph /  14.5km/h 12.0mph /  19.3km/h 74% 0.00in /  0mm 499 W/m2
10:01 30.7 °F /  -0.7 °C 23.7 °F /  -4.6 °C 30.18in /  1021.9hPa SE 11.0mph /  17.7km/h 14.0mph /  22.5km/h 75% 0.00in /  0mm 515 W/m2
10:06 31.1 °F /  -0.5 °C 23.8 °F /  -4.6 °C 30.18in /  1021.9hPa ESE 8.0mph /  12.9km/h 14.0mph /  22.5km/h 74% 0.00in /  0mm 529 W/m2
10:11 31.3 °F /  -0.4 °C 23.3 °F /  -4.8 °C 30.18in /  1021.9hPa SSE 8.0mph /  12.9km/h 12.0mph /  19.3km/h 72% 0.00in /  0mm 543 W/m2
10:16 31.6 °F /  -0.2 °C 23.6 °F /  -4.7 °C 30.18in /  1021.9hPa SE 10.0mph /  16.1km/h 12.0mph /  19.3km/h 72% 0.00in /  0mm 557 W/m2
10:21 31.9 °F /  -0.1 °C 23.9 °F /  -4.5 °C 30.18in /  1021.9hPa ESE 8.0mph /  12.9km/h 13.0mph /  20.9km/h 72% 0.00in /  0mm 571 W/m2
10:26 32.7 °F /  0.4 °C 23.6 °F /  -4.7 °C 30.18in /  1021.9hPa SE 8.0mph /  12.9km/h 13.0mph /  20.9km/h 69% 0.00in /  0mm 584 W/m2
10:31 33.2 °F /  0.7 °C 22.7 °F /  -5.2 °C 30.18in /  1021.9hPa SE 6.0mph /  9.7km/h 16.0mph /  25.7km/h 65% 0.00in /  0mm 596 W/m2
10:36 33.5 °F /  0.8 °C 22.2 °F /  -5.4 °C 30.18in /  1021.9hPa SE 5.0mph /  8km/h 16.0mph /  25.7km/h 63% 0.00in /  0mm 596 W/m2
10:41 33.6 °F /  0.9 °C 22.0 °F /  -5.6 °C 30.18in /  1021.9hPa SE 5.0mph /  8km/h 14.0mph /  22.5km/h 62% 0.00in /  0mm 584 W/m2
10:46 34.0 °F /  1.1 °C 22.0 °F /  -5.6 °C 30.17in /  1021.6hPa SE 8.0mph /  12.9km/h 14.0mph /  22.5km/h 61% 0.00in /  0mm 570 W/m2
10:51 34.4 °F /  1.3 °C 21.5 °F /  -5.8 °C 30.17in /  1021.6hPa SSE 10.0mph /  16.1km/h 14.0mph /  22.5km/h 59% 0.00in /  0mm 550 W/m2
10:56 34.8 °F /  1.6 °C 21.1 °F /  -6.1 °C 30.17in /  1021.6hPa SSE 10.0mph /  16.1km/h 14.0mph /  22.5km/h 57% 0.00in /  0mm 536 W/m2
11:01 34.9 °F /  1.6 °C 20.4 °F /  -6.4 °C 30.17in /  1021.6hPa ESE 16.0mph /  25.7km/h 16.0mph /  25.7km/h 55% 0.00in /  0mm 534 W/m2
11:06 35.3 °F /  1.8 °C 20.3 °F /  -6.5 °C 30.17in /  1021.6hPa ESE 10.0mph /  16.1km/h 16.0mph /  25.7km/h 54% 0.00in /  0mm 545 W/m2
11:11 35.8 °F /  2.1 °C 19.4 °F /  -7 °C 30.17in /  1021.6hPa East 16.0mph /  25.7km/h 16.0mph /  25.7km/h 51% 0.00in /  0mm 571 W/m2
11:16 35.6 °F /  2 °C 18.8 °F /  -7.3 °C 30.16in /  1021.2hPa ESE 11.0mph /  17.7km/h 17.0mph /  27.4km/h 50% 0.00in /  0mm 587 W/m2
11:21 35.9 °F /  2.2 °C 18.6 °F /  -7.4 °C 30.16in /  1021.2hPa SE 14.0mph /  22.5km/h 17.0mph /  27.4km/h 49% 0.00in /  0mm 619 W/m2
11:26 36.5 °F /  2.5 °C 20.5 °F /  -6.4 °C 30.16in /  1021.2hPa SSE 12.0mph /  19.3km/h 17.0mph /  27.4km/h 52% 0.00in /  0mm 675 W/m2
11:31 36.7 °F /  2.6 °C 19.8 °F /  -6.8 °C 30.16in /  1021.2hPa ESE 16.0mph /  25.7km/h 18.0mph /  29km/h 50% 0.00in /  0mm 728 W/m2
11:36 36.2 °F /  2.3 °C 19.8 °F /  -6.8 °C 30.16in /  1021.2hPa ESE 10.0mph /  16.1km/h 18.0mph /  29km/h 51% 0.00in /  0mm 742 W/m2
11:41 36.3 °F /  2.4 °C 19.4 °F /  -7 °C 30.16in /  1021.2hPa ESE 9.0mph /  14.5km/h 18.0mph /  29km/h 50% 0.00in /  0mm 752 W/m2
11:46 36.8 °F /  2.7 °C 20.3 °F /  -6.5 °C 30.16in /  1021.2hPa ENE 11.0mph /  17.7km/h 17.0mph /  27.4km/h 51% 0.00in /  0mm 761 W/m2
11:51 36.7 °F /  2.6 °C 21.6 °F /  -5.8 °C 30.16in /  1021.2hPa ESE 12.0mph /  19.3km/h 20.0mph /  32.2km/h 54% 0.00in /  0mm 772 W/m2
11:56 36.7 °F /  2.6 °C 22.5 °F /  -5.3 °C 30.16in /  1021.2hPa ESE 9.0mph /  14.5km/h 20.0mph /  32.2km/h 56% 0.00in /  0mm 779 W/m2
12:01 36.9 °F /  2.7 °C 22.7 °F /  -5.2 °C 30.16in /  1021.2hPa East 13.0mph /  20.9km/h 20.0mph /  32.2km/h 56% 0.00in /  0mm 788 W/m2
12:06 37.1 °F /  2.8 °C 20.6 °F /  -6.3 °C 30.16in /  1021.2hPa ESE 8.0mph /  12.9km/h 20.0mph /  32.2km/h 51% 0.00in /  0mm 796 W/m2
12:11 37.4 °F /  3 °C 22.3 °F /  -5.4 °C 30.15in /  1020.9hPa East 10.0mph /  16.1km/h 18.0mph /  29km/h 54% 0.00in /  0mm 802 W/m2
12:16 37.4 °F /  3 °C 23.1 °F /  -4.9 °C 30.15in /  1020.9hPa East 14.0mph /  22.5km/h 17.0mph /  27.4km/h 56% 0.00in /  0mm 810 W/m2
12:21 37.4 °F /  3 °C 21.8 °F /  -5.7 °C 30.15in /  1020.9hPa ESE 13.0mph /  20.9km/h 18.0mph /  29km/h 53% 0.00in /  0mm 816 W/m2
12:26 37.3 °F /  2.9 °C 22.6 °F /  -5.2 °C 30.15in /  1020.9hPa East 15.0mph /  24.1km/h 18.0mph /  29km/h 55% 0.00in /  0mm 823 W/m2
12:31 37.6 °F /  3.1 °C 22.9 °F /  -5.1 °C 30.15in /  1020.9hPa ESE 9.0mph /  14.5km/h 18.0mph /  29km/h 55% 0.00in /  0mm 826 W/m2
12:36 38.1 °F /  3.4 °C 24.2 °F /  -4.3 °C 30.15in /  1020.9hPa East 14.0mph /  22.5km/h 18.0mph /  29km/h 57% 0.00in /  0mm 833 W/m2
12:41 38.3 °F /  3.5 °C 24.0 °F /  -4.4 °C 30.15in /  1020.9hPa ESE 14.0mph /  22.5km/h 19.0mph /  30.6km/h 56% 0.00in /  0mm 840 W/m2
12:46 38.1 °F /  3.4 °C 23.8 °F /  -4.6 °C 30.15in /  1020.9hPa East 9.0mph /  14.5km/h 19.0mph /  30.6km/h 56% 0.00in /  0mm 842 W/m2
12:51 38.4 °F /  3.6 °C 24.5 °F /  -4.2 °C 30.14in /  1020.5hPa ESE 13.0mph /  20.9km/h 18.0mph /  29km/h 57% 0.00in /  0mm 849 W/m2
12:56 38.2 °F /  3.4 °C 25.1 °F /  -3.8 °C 30.14in /  1020.5hPa ESE 13.0mph /  20.9km/h 19.0mph /  30.6km/h 59% 0.00in /  0mm 854 W/m2
13:01 38.3 °F /  3.5 °C 26.0 °F /  -3.3 °C 30.14in /  1020.5hPa ESE 10.0mph /  16.1km/h 21.0mph /  33.8km/h 61% 0.00in /  0mm 854 W/m2
13:06 38.5 °F /  3.6 °C 25.8 °F /  -3.4 °C 30.13in /  1020.2hPa ESE 15.0mph /  24.1km/h 21.0mph /  33.8km/h 60% 0.00in /  0mm 860 W/m2
13:11 38.7 °F /  3.7 °C 26.4 °F /  -3.1 °C 30.13in /  1020.2hPa ESE 18.0mph /  29km/h 20.0mph /  32.2km/h 61% 0.00in /  0mm 863 W/m2
13:16 38.7 °F /  3.7 °C 25.2 °F /  -3.8 °C 30.13in /  1020.2hPa ESE 15.0mph /  24.1km/h 21.0mph /  33.8km/h 58% 0.00in /  0mm 865 W/m2
13:21 38.4 °F /  3.6 °C 24.1 °F /  -4.4 °C 30.13in /  1020.2hPa ESE 16.0mph /  25.7km/h 23.0mph /  37km/h 56% 0.00in /  0mm 867 W/m2
13:26 38.7 °F /  3.7 °C 24.3 °F /  -4.3 °C 30.13in /  1020.2hPa East 14.0mph /  22.5km/h 23.0mph /  37km/h 56% 0.00in /  0mm 867 W/m2
13:31 38.8 °F /  3.8 °C 24.0 °F /  -4.4 °C 30.13in /  1020.2hPa East 17.0mph /  27.4km/h 23.0mph /  37km/h 55% 0.00in /  0mm 870 W/m2
13:36 39.0 °F /  3.9 °C 23.3 °F /  -4.8 °C 30.12in /  1019.9hPa ESE 16.0mph /  25.7km/h 23.0mph /  37km/h 53% 0.00in /  0mm 868 W/m2
13:41 39.3 °F /  4.1 °C 23.6 °F /  -4.7 °C 30.12in /  1019.9hPa East 17.0mph /  27.4km/h 23.0mph /  37km/h 53% 0.00in /  0mm 860 W/m2
13:46 39.5 °F /  4.2 °C 23.3 °F /  -4.8 °C 30.12in /  1019.9hPa East 14.0mph /  22.5km/h 26.0mph /  41.8km/h 52% 0.00in /  0mm 877 W/m2
13:51 39.8 °F /  4.3 °C 23.6 °F /  -4.7 °C 30.12in /  1019.9hPa East 23.0mph /  37km/h 26.0mph /  41.8km/h 52% 0.00in /  0mm 874 W/m2
13:56 39.4 °F /  4.1 °C 22.8 °F /  -5.1 °C 30.12in /  1019.9hPa East 21.0mph /  33.8km/h 24.0mph /  38.6km/h 51% 0.00in /  0mm 868 W/m2
14:01 39.5 °F /  4.2 °C 22.8 °F /  -5.1 °C 30.12in /  1019.9hPa ESE 19.0mph /  30.6km/h 25.0mph /  40.2km/h 51% 0.00in /  0mm 868 W/m2
14:06 39.4 °F /  4.1 °C 22.3 °F /  -5.4 °C 30.11in /  1019.5hPa East 17.0mph /  27.4km/h 27.0mph /  43.5km/h 50% 0.00in /  0mm 847 W/m2
14:11 39.8 °F /  4.3 °C 21.7 °F /  -5.7 °C 30.11in /  1019.5hPa East 15.0mph /  24.1km/h 27.0mph /  43.5km/h 48% 0.00in /  0mm 789 W/m2
14:16 40.1 °F /  4.5 °C 21.5 °F /  -5.8 °C 30.11in /  1019.5hPa ESE 12.0mph /  19.3km/h 27.0mph /  43.5km/h 47% 0.00in /  0mm 884 W/m2
14:21 40.1 °F /  4.5 °C 22.0 °F /  -5.6 °C 30.11in /  1019.5hPa East 23.0mph /  37km/h 27.0mph /  43.5km/h 48% 0.00in /  0mm 868 W/m2
14:26 40.1 °F /  4.5 °C 21.5 °F /  -5.8 °C 30.11in /  1019.5hPa East 15.0mph /  24.1km/h 26.0mph /  41.8km/h 47% 0.00in /  0mm 870 W/m2
14:29 40.2 °F /  4.6 °C 21.0 °F /  -6.1 °C 30.11in /  1019.5hPa ESE 19.0mph /  30.6km/h 26.0mph /  41.8km/h 46% 0.00in /  0mm 865 W/m2
14:34 40.4 °F /  4.7 °C 21.7 °F /  -5.7 °C 30.11in /  1019.5hPa ESE 17.0mph /  27.4km/h 25.0mph /  40.2km/h 47% 0.00in /  0mm 812 W/m2
14:39 40.5 °F /  4.7 °C 20.8 °F /  -6.2 °C 30.10in /  1019.2hPa ESE 22.0mph /  35.4km/h 26.0mph /  41.8km/h 45% 0.00in /  0mm 870 W/m2
14:44 40.1 °F /  4.5 °C 19.9 °F /  -6.7 °C 30.10in /  1019.2hPa ESE 19.0mph /  30.6km/h 26.0mph /  41.8km/h 44% 0.00in /  0mm 858 W/m2
14:49 40.5 °F /  4.7 °C 20.3 °F /  -6.5 °C 30.10in /  1019.2hPa ESE 19.0mph /  30.6km/h 26.0mph /  41.8km/h 44% 0.00in /  0mm 846 W/m2
14:54 40.7 °F /  4.8 °C 19.9 °F /  -6.7 °C 30.09in /  1018.8hPa ESE 12.0mph /  19.3km/h 24.0mph /  38.6km/h 43% 0.00in /  0mm 840 W/m2
14:59 40.7 °F /  4.8 °C 20.5 °F /  -6.4 °C 30.09in /  1018.8hPa East 17.0mph /  27.4km/h 26.0mph /  41.8km/h 44% 0.00in /  0mm 833 W/m2
15:04 40.7 °F /  4.8 °C 20.5 °F /  -6.4 °C 30.09in /  1018.8hPa ESE 21.0mph /  33.8km/h 26.0mph /  41.8km/h 44% 0.00in /  0mm 828 W/m2
15:09 41.2 °F /  5.1 °C 21.4 °F /  -5.9 °C 30.09in /  1018.8hPa ESE 19.0mph /  30.6km/h 25.0mph /  40.2km/h 45% 0.00in /  0mm 819 W/m2
15:14 41.1 °F /  5.1 °C 20.3 °F /  -6.5 °C 30.09in /  1018.8hPa ESE 15.0mph /  24.1km/h 25.0mph /  40.2km/h 43% 0.00in /  0mm 812 W/m2
15:19 41.2 °F /  5.1 °C 20.9 °F /  -6.2 °C 30.09in /  1018.8hPa ESE 17.0mph /  27.4km/h 25.0mph /  40.2km/h 44% 0.00in /  0mm 809 W/m2
15:24 41.2 °F /  5.1 °C 21.4 °F /  -5.9 °C 30.09in /  1018.8hPa ESE 16.0mph /  25.7km/h 25.0mph /  40.2km/h 45% 0.00in /  0mm 800 W/m2
15:29 41.3 °F /  5.2 °C 21.0 °F /  -6.1 °C 30.08in /  1018.5hPa ESE 14.0mph /  22.5km/h 26.0mph /  41.8km/h 44% 0.00in /  0mm 793 W/m2
15:34 41.0 °F /  5 °C 21.3 °F /  -5.9 °C 30.08in /  1018.5hPa ESE 18.0mph /  29km/h 26.0mph /  41.8km/h 45% 0.00in /  0mm 786 W/m2
15:39 41.0 °F /  5 °C 21.8 °F /  -5.7 °C 30.08in /  1018.5hPa East 18.0mph /  29km/h 26.0mph /  41.8km/h 46% 0.00in /  0mm 775 W/m2
15:44 40.9 °F /  4.9 °C 21.7 °F /  -5.7 °C 30.08in /  1018.5hPa ESE 17.0mph /  27.4km/h 27.0mph /  43.5km/h 46% 0.00in /  0mm 768 W/m2
15:49 41.4 °F /  5.2 °C 22.7 °F /  -5.2 °C 30.07in /  1018.2hPa ESE 19.0mph /  30.6km/h 28.0mph /  45.1km/h 47% 0.00in /  0mm 761 W/m2
15:54 41.2 °F /  5.1 °C 22.0 °F /  -5.6 °C 30.07in /  1018.2hPa ESE 16.0mph /  25.7km/h 28.0mph /  45.1km/h 46% 0.00in /  0mm 751 W/m2
15:59 41.4 °F /  5.2 °C 23.2 °F /  -4.9 °C 30.07in /  1018.2hPa ESE 21.0mph /  33.8km/h 27.0mph /  43.5km/h 48% 0.00in /  0mm 742 W/m2
16:04 41.4 °F /  5.2 °C 22.1 °F /  -5.5 °C 30.07in /  1018.2hPa ESE 11.0mph /  17.7km/h 25.0mph /  40.2km/h 46% 0.00in /  0mm 733 W/m2
16:09 41.5 °F /  5.3 °C 22.2 °F /  -5.4 °C 30.06in /  1017.8hPa East 17.0mph /  27.4km/h 25.0mph /  40.2km/h 46% 0.00in /  0mm 722 W/m2
16:14 41.6 °F /  5.3 °C 22.3 °F /  -5.4 °C 30.07in /  1018.2hPa East 15.0mph /  24.1km/h 27.0mph /  43.5km/h 46% 0.00in /  0mm 710 W/m2
16:19 42.1 °F /  5.6 °C 24.8 °F /  -4 °C 30.06in /  1017.8hPa ESE 23.0mph /  37km/h 27.0mph /  43.5km/h 50% 0.00in /  0mm 701 W/m2
16:24 41.9 °F /  5.5 °C 23.1 °F /  -4.9 °C 30.06in /  1017.8hPa East 18.0mph /  29km/h 27.0mph /  43.5km/h 47% 0.00in /  0mm 691 W/m2
16:29 42.0 °F /  5.6 °C 24.7 °F /  -4.1 °C 30.06in /  1017.8hPa East 18.0mph /  29km/h 27.0mph /  43.5km/h 50% 0.00in /  0mm 680 W/m2
16:34 41.8 °F /  5.4 °C 24.0 °F /  -4.4 °C 30.05in /  1017.5hPa East 20.0mph /  32.2km/h 26.0mph /  41.8km/h 49% 0.00in /  0mm 668 W/m2
16:39 41.9 °F /  5.5 °C 23.6 °F /  -4.7 °C 30.05in /  1017.5hPa ESE 17.0mph /  27.4km/h 26.0mph /  41.8km/h 48% 0.00in /  0mm 656 W/m2
16:44 41.7 °F /  5.4 °C 24.4 °F /  -4.2 °C 30.05in /  1017.5hPa ESE 19.0mph /  30.6km/h 25.0mph /  40.2km/h 50% 0.00in /  0mm 643 W/m2
16:49 42.0 °F /  5.6 °C 24.7 °F /  -4.1 °C 30.04in /  1017.2hPa East 19.0mph /  30.6km/h 25.0mph /  40.2km/h 50% 0.00in /  0mm 629 W/m2
16:54 41.6 °F /  5.3 °C 24.3 °F /  -4.3 °C 30.03in /  1016.8hPa ESE 14.0mph /  22.5km/h 26.0mph /  41.8km/h 50% 0.00in /  0mm 621 W/m2
16:59 41.5 °F /  5.3 °C 24.2 °F /  -4.3 °C 30.03in /  1016.8hPa ESE 13.0mph /  20.9km/h 26.0mph /  41.8km/h 50% 0.00in /  0mm 606 W/m2
17:04 41.6 °F /  5.3 °C 24.8 °F /  -4 °C 30.03in /  1016.8hPa ESE 11.0mph /  17.7km/h 27.0mph /  43.5km/h 51% 0.00in /  0mm 592 W/m2
17:09 41.5 °F /  5.3 °C 23.7 °F /  -4.6 °C 30.03in /  1016.8hPa East 19.0mph /  30.6km/h 30.0mph /  48.3km/h 49% 0.00in /  0mm 578 W/m2
17:14 41.6 °F /  5.3 °C 24.3 °F /  -4.3 °C 30.03in /  1016.8hPa East 17.0mph /  27.4km/h 30.0mph /  48.3km/h 50% 0.00in /  0mm 566 W/m2
17:19 41.7 °F /  5.4 °C 24.4 °F /  -4.2 °C 30.02in /  1016.5hPa ESE 13.0mph /  20.9km/h 27.0mph /  43.5km/h 50% 0.00in /  0mm 550 W/m2
17:24 41.9 °F /  5.5 °C 24.1 °F /  -4.4 °C 30.02in /  1016.5hPa SE 18.0mph /  29km/h 28.0mph /  45.1km/h 49% 0.00in /  0mm 536 W/m2
17:29 41.8 °F /  5.4 °C 24.5 °F /  -4.2 °C 30.02in /  1016.5hPa East 18.0mph /  29km/h 28.0mph /  45.1km/h 50% 0.00in /  0mm 524 W/m2
17:34 41.7 °F /  5.4 °C 23.9 °F /  -4.5 °C 30.02in /  1016.5hPa East 17.0mph /  27.4km/h 27.0mph /  43.5km/h 49% 0.00in /  0mm 510 W/m2
17:39 41.9 °F /  5.5 °C 24.1 °F /  -4.4 °C 30.02in /  1016.5hPa East 18.0mph /  29km/h 27.0mph /  43.5km/h 49% 0.00in /  0mm 494 W/m2
17:44 41.8 °F /  5.4 °C 24.5 °F /  -4.2 °C 30.02in /  1016.5hPa SE 14.0mph /  22.5km/h 25.0mph /  40.2km/h 50% 0.00in /  0mm 482 W/m2
17:49 41.6 °F /  5.3 °C 23.8 °F /  -4.6 °C 30.02in /  1016.5hPa ESE 21.0mph /  33.8km/h 25.0mph /  40.2km/h 49% 0.00in /  0mm 464 W/m2
17:54 41.6 °F /  5.3 °C 24.3 °F /  -4.3 °C 30.02in /  1016.5hPa East 23.0mph /  37km/h 27.0mph /  43.5km/h 50% 0.00in /  0mm 448 W/m2
17:59 41.5 °F /  5.3 °C 23.7 °F /  -4.6 °C 30.02in /  1016.5hPa ESE 15.0mph /  24.1km/h 27.0mph /  43.5km/h 49% 0.00in /  0mm 432 W/m2
18:04 41.5 °F /  5.3 °C 23.7 °F /  -4.6 °C 30.02in /  1016.5hPa ESE 17.0mph /  27.4km/h 28.0mph /  45.1km/h 49% 0.00in /  0mm 418 W/m2
18:09 41.5 °F /  5.3 °C 24.2 °F /  -4.3 °C 30.02in /  1016.5hPa ESE 15.0mph /  24.1km/h 28.0mph /  45.1km/h 50% 0.00in /  0mm 404 W/m2
18:14 41.4 °F /  5.2 °C 24.6 °F /  -4.1 °C 30.02in /  1016.5hPa ESE 16.0mph /  25.7km/h 25.0mph /  40.2km/h 51% 0.00in /  0mm 387 W/m2
18:19 41.0 °F /  5 °C 25.6 °F /  -3.6 °C 30.02in /  1016.5hPa ESE 20.0mph /  32.2km/h 26.0mph /  41.8km/h 54% 0.00in /  0mm 371 W/m2
18:24 41.0 °F /  5 °C 25.6 °F /  -3.6 °C 30.02in /  1016.5hPa ENE 11.0mph /  17.7km/h 26.0mph /  41.8km/h 54% 0.00in /  0mm 355 W/m2
18:29 40.7 °F /  4.8 °C 25.8 °F /  -3.4 °C 30.01in /  1016.1hPa ESE 18.0mph /  29km/h 26.0mph /  41.8km/h 55% 0.00in /  0mm 338 W/m2
18:34 40.6 °F /  4.8 °C 26.1 °F /  -3.3 °C 30.02in /  1016.5hPa ESE 13.0mph /  20.9km/h 26.0mph /  41.8km/h 56% 0.00in /  0mm 322 W/m2
18:39 40.4 °F /  4.7 °C 26.4 °F /  -3.1 °C 30.01in /  1016.1hPa East 24.0mph /  38.6km/h 25.0mph /  40.2km/h 57% 0.00in /  0mm 306 W/m2
18:44 40.5 °F /  4.7 °C 26.4 °F /  -3.1 °C 30.01in /  1016.1hPa East 18.0mph /  29km/h 26.0mph /  41.8km/h 57% 0.00in /  0mm 288 W/m2
18:49 40.0 °F /  4.4 °C 25.6 °F /  -3.6 °C 30.01in /  1016.1hPa ESE 17.0mph /  27.4km/h 26.0mph /  41.8km/h 56% 0.00in /  0mm 271 W/m2
18:54 39.7 °F /  4.3 °C 25.7 °F /  -3.5 °C 30.01in /  1016.1hPa East 13.0mph /  20.9km/h 27.0mph /  43.5km/h 57% 0.00in /  0mm 251 W/m2
18:59 39.6 °F /  4.2 °C 25.2 °F /  -3.8 °C 30.01in /  1016.1hPa ESE 15.0mph /  24.1km/h 27.0mph /  43.5km/h 56% 0.00in /  0mm 230 W/m2
19:04 39.4 °F /  4.1 °C 25.0 °F /  -3.9 °C 30.01in /  1016.1hPa East 13.0mph /  20.9km/h 23.0mph /  37km/h 56% 0.00in /  0mm 211 W/m2
19:09 39.2 °F /  4 °C 24.4 °F /  -4.2 °C 30.01in /  1016.1hPa ESE 14.0mph /  22.5km/h 27.0mph /  43.5km/h 55% 0.00in /  0mm 190 W/m2
19:14 38.9 °F /  3.8 °C 23.7 °F /  -4.6 °C 30.00in /  1015.8hPa ESE 22.0mph /  35.4km/h 27.0mph /  43.5km/h 54% 0.00in /  0mm 174 W/m2
19:19 38.4 °F /  3.6 °C 22.7 °F /  -5.2 °C 30.00in /  1015.8hPa ESE 13.0mph /  20.9km/h 28.0mph /  45.1km/h 53% 0.00in /  0mm 153 W/m2
19:24 38.1 °F /  3.4 °C 22.5 °F /  -5.3 °C 30.00in /  1015.8hPa ESE 17.0mph /  27.4km/h 28.0mph /  45.1km/h 53% 0.00in /  0mm 135 W/m2
19:29 37.9 °F /  3.3 °C 22.3 °F /  -5.4 °C 30.00in /  1015.8hPa East 19.0mph /  30.6km/h 28.0mph /  45.1km/h 53% 0.00in /  0mm 118 W/m2
19:34 37.8 °F /  3.2 °C 22.6 °F /  -5.2 °C 29.99in /  1015.5hPa East 13.0mph /  20.9km/h 28.0mph /  45.1km/h 54% 0.00in /  0mm 100 W/m2
19:39 37.5 °F /  3.1 °C 22.3 °F /  -5.4 °C 29.99in /  1015.5hPa East 14.0mph /  22.5km/h 24.0mph /  38.6km/h 54% 0.00in /  0mm 84 W/m2
19:44 37.2 °F /  2.9 °C 21.6 °F /  -5.8 °C 29.99in /  1015.5hPa ESE 11.0mph /  17.7km/h 24.0mph /  38.6km/h 53% 0.00in /  0mm 70 W/m2
19:49 37.0 °F /  2.8 °C 21.4 °F /  -5.9 °C 29.99in /  1015.5hPa ESE 13.0mph /  20.9km/h 24.0mph /  38.6km/h 53% 0.00in /  0mm 60 W/m2
19:54 36.7 °F /  2.6 °C 21.6 °F /  -5.8 °C 29.99in /  1015.5hPa ESE 13.0mph /  20.9km/h 25.0mph /  40.2km/h 54% 0.00in /  0mm 49 W/m2
19:59 36.4 °F /  2.4 °C 21.3 °F /  -5.9 °C 29.99in /  1015.5hPa East 11.0mph /  17.7km/h 25.0mph /  40.2km/h 54% 0.00in /  0mm 39 W/m2
20:04 36.1 °F /  2.3 °C 21.5 °F /  -5.8 °C 29.99in /  1015.5hPa East 15.0mph /  24.1km/h 24.0mph /  38.6km/h 55% 0.00in /  0mm 30 W/m2
20:09 35.8 °F /  2.1 °C 21.6 °F /  -5.8 °C 30.00in /  1015.8hPa ESE 10.0mph /  16.1km/h 21.0mph /  33.8km/h 56% 0.00in /  0mm 25 W/m2
20:14 35.5 °F /  1.9 °C 21.3 °F /  -5.9 °C 30.00in /  1015.8hPa ESE 11.0mph /  17.7km/h 21.0mph /  33.8km/h 56% 0.00in /  0mm 19 W/m2
20:19 35.1 °F /  1.7 °C 21.0 °F /  -6.1 °C 30.00in /  1015.8hPa East 16.0mph /  25.7km/h 21.0mph /  33.8km/h 56% 0.00in /  0mm 16 W/m2
20:24 34.9 °F /  1.6 °C 21.6 °F /  -5.8 °C 30.00in /  1015.8hPa ENE 16.0mph /  25.7km/h 20.0mph /  32.2km/h 58% 0.00in /  0mm 12 W/m2
20:29 34.6 °F /  1.4 °C 21.7 °F /  -5.7 °C 30.00in /  1015.8hPa ESE 13.0mph /  20.9km/h 20.0mph /  32.2km/h 59% 0.00in /  0mm 9 W/m2
20:34 34.3 °F /  1.3 °C 22.2 °F /  -5.4 °C 30.01in /  1016.1hPa East 10.0mph /  16.1km/h 20.0mph /  32.2km/h 61% 0.00in /  0mm 5 W/m2
20:39 34.0 °F /  1.1 °C 22.3 °F /  -5.4 °C 30.01in /  1016.1hPa ESE 14.0mph /  22.5km/h 20.0mph /  32.2km/h 62% 0.00in /  0mm 0 W/m2
20:44 33.8 °F /  1 °C 22.9 °F /  -5.1 °C 30.01in /  1016.1hPa East 10.0mph /  16.1km/h 19.0mph /  30.6km/h 64% 0.00in /  0mm 0 W/m2
20:49 33.4 °F /  0.8 °C 22.9 °F /  -5.1 °C 30.01in /  1016.1hPa East 13.0mph /  20.9km/h 18.0mph /  29km/h 65% 0.00in /  0mm 0 W/m2
20:54 33.1 °F /  0.6 °C 23.0 °F /  -5 °C 30.01in /  1016.1hPa ESE 12.0mph /  19.3km/h 18.0mph /  29km/h 66% 0.00in /  0mm 0 W/m2
20:59 32.8 °F /  0.4 °C 22.7 °F /  -5.2 °C 30.01in /  1016.1hPa ENE 11.0mph /  17.7km/h 18.0mph /  29km/h 66% 0.00in /  0mm 0 W/m2
21:04 32.6 °F /  0.3 °C 23.2 °F /  -4.9 °C 30.00in /  1015.8hPa ESE 12.0mph /  19.3km/h 18.0mph /  29km/h 68% 0.00in /  0mm 0 W/m2
21:09 32.2 °F /  0.1 °C 23.2 °F /  -4.9 °C 30.00in /  1015.8hPa East 14.0mph /  22.5km/h 18.0mph /  29km/h 69% 0.00in /  0mm 0 W/m2
21:14 32.1 °F /  0.1 °C 23.1 °F /  -4.9 °C 30.01in /  1016.1hPa East 13.0mph /  20.9km/h 21.0mph /  33.8km/h 69% 0.00in /  0mm 0 W/m2
21:19 31.9 °F /  -0.1 °C 23.2 °F /  -4.9 °C 30.01in /  1016.1hPa ESE 13.0mph /  20.9km/h 21.0mph /  33.8km/h 70% 0.00in /  0mm 0 W/m2
21:24 31.7 °F /  -0.2 °C 23.4 °F /  -4.8 °C 30.02in /  1016.5hPa ESE 12.0mph /  19.3km/h 19.0mph /  30.6km/h 71% 0.00in /  0mm 0 W/m2
21:29 31.6 °F /  -0.2 °C 23.3 °F /  -4.8 °C 30.02in /  1016.5hPa East 14.0mph /  22.5km/h 19.0mph /  30.6km/h 71% 0.00in /  0mm 0 W/m2
21:34 31.5 °F /  -0.3 °C 23.2 °F /  -4.9 °C 30.02in /  1016.5hPa ESE 11.0mph /  17.7km/h 18.0mph /  29km/h 71% 0.00in /  0mm 0 W/m2
21:39 31.3 °F /  -0.4 °C 23.3 °F /  -4.8 °C 30.02in /  1016.5hPa East 15.0mph /  24.1km/h 20.0mph /  32.2km/h 72% 0.00in /  0mm 0 W/m2
21:44 31.2 °F /  -0.4 °C 23.2 °F /  -4.9 °C 30.02in /  1016.5hPa East 14.0mph /  22.5km/h 22.0mph /  35.4km/h 72% 0.00in /  0mm 0 W/m2
21:49 31.2 °F /  -0.4 °C 23.2 °F /  -4.9 °C 30.02in /  1016.5hPa East 14.0mph /  22.5km/h 24.0mph /  38.6km/h 72% 0.00in /  0mm 0 W/m2
21:54 31.0 °F /  -0.6 °C 23.0 °F /  -5 °C 30.02in /  1016.5hPa East 17.0mph /  27.4km/h 24.0mph /  38.6km/h 72% 0.00in /  0mm 0 W/m2
21:59 30.9 °F /  -0.6 °C 22.9 °F /  -5.1 °C 30.02in /  1016.5hPa East 13.0mph /  20.9km/h 23.0mph /  37km/h 72% 0.00in /  0mm 0 W/m2
22:04 30.9 °F /  -0.6 °C 23.3 °F /  -4.8 °C 30.02in /  1016.5hPa East 15.0mph /  24.1km/h 23.0mph /  37km/h 73% 0.00in /  0mm 0 W/m2
22:09 30.8 °F /  -0.7 °C 23.2 °F /  -4.9 °C 30.03in /  1016.8hPa ENE 14.0mph /  22.5km/h 23.0mph /  37km/h 73% 0.00in /  0mm 0 W/m2
22:14 30.8 °F /  -0.7 °C 23.2 °F /  -4.9 °C 30.03in /  1016.8hPa ESE 16.0mph /  25.7km/h 24.0mph /  38.6km/h 73% 0.00in /  0mm 0 W/m2
22:19 30.7 °F /  -0.7 °C 23.4 °F /  -4.8 °C 30.03in /  1016.8hPa East 15.0mph /  24.1km/h 24.0mph /  38.6km/h 74% 0.00in /  0mm 0 W/m2
22:24 30.6 °F /  -0.8 °C 23.3 °F /  -4.8 °C 30.03in /  1016.8hPa East 18.0mph /  29km/h 24.0mph /  38.6km/h 74% 0.00in /  0mm 0 W/m2
22:29 30.6 °F /  -0.8 °C 23.3 °F /  -4.8 °C 30.03in /  1016.8hPa East 16.0mph /  25.7km/h 24.0mph /  38.6km/h 74% 0.00in /  0mm 0 W/m2
22:34 30.7 °F /  -0.7 °C 23.4 °F /  -4.8 °C 30.03in /  1016.8hPa East 19.0mph /  30.6km/h 24.0mph /  38.6km/h 74% 0.00in /  0mm 0 W/m2
22:39 30.7 °F /  -0.7 °C 23.4 °F /  -4.8 °C 30.03in /  1016.8hPa East 17.0mph /  27.4km/h 24.0mph /  38.6km/h 74% 0.00in /  0mm 0 W/m2
22:44 30.7 °F /  -0.7 °C 23.4 °F /  -4.8 °C 30.03in /  1016.8hPa ENE 17.0mph /  27.4km/h 25.0mph /  40.2km/h 74% 0.00in /  0mm 0 W/m2
22:49 30.7 °F /  -0.7 °C 23.4 °F /  -4.8 °C 30.02in /  1016.5hPa East 18.0mph /  29km/h 25.0mph /  40.2km/h 74% 0.00in /  0mm 0 W/m2
22:54 30.7 °F /  -0.7 °C 23.4 °F /  -4.8 °C 30.02in /  1016.5hPa East 15.0mph /  24.1km/h 28.0mph /  45.1km/h 74% 0.00in /  0mm 0 W/m2
22:59 30.4 °F /  -0.9 °C 23.1 °F /  -4.9 °C 30.02in /  1016.5hPa East 18.0mph /  29km/h 28.0mph /  45.1km/h 74% 0.00in /  0mm 0 W/m2
23:04 30.3 °F /  -0.9 °C 23.0 °F /  -5 °C 30.02in /  1016.5hPa ESE 12.0mph /  19.3km/h 27.0mph /  43.5km/h 74% 0.00in /  0mm 0 W/m2
23:09 30.2 °F /  -1 °C 22.9 °F /  -5.1 °C 30.02in /  1016.5hPa ESE 20.0mph /  32.2km/h 28.0mph /  45.1km/h 74% 0.00in /  0mm 0 W/m2
23:14 30.1 °F /  -1.1 °C 22.8 °F /  -5.1 °C 30.02in /  1016.5hPa East 16.0mph /  25.7km/h 29.0mph /  46.7km/h 74% 0.00in /  0mm 0 W/m2
23:19 30.0 °F /  -1.1 °C 22.7 °F /  -5.2 °C 30.02in /  1016.5hPa East 19.0mph /  30.6km/h 29.0mph /  46.7km/h 74% 0.00in /  0mm 0 W/m2
23:24 30.0 °F /  -1.1 °C 22.7 °F /  -5.2 °C 30.02in /  1016.5hPa East 19.0mph /  30.6km/h 25.0mph /  40.2km/h 74% 0.00in /  0mm 0 W/m2
23:29 29.8 °F /  -1.2 °C 22.8 °F /  -5.1 °C 30.02in /  1016.5hPa East 13.0mph /  20.9km/h 25.0mph /  40.2km/h 75% 0.00in /  0mm 0 W/m2
23:34 29.9 °F /  -1.2 °C 22.9 °F /  -5.1 °C 30.02in /  1016.5hPa East 15.0mph /  24.1km/h 25.0mph /  40.2km/h 75% 0.00in /  0mm 0 W/m2
23:39 29.8 °F /  -1.2 °C 22.8 °F /  -5.1 °C 30.02in /  1016.5hPa East 18.0mph /  29km/h 25.0mph /  40.2km/h 75% 0.00in /  0mm 0 W/m2
23:44 29.7 °F /  -1.3 °C 23.1 °F /  -4.9 °C 30.01in /  1016.1hPa East 18.0mph /  29km/h 23.0mph /  37km/h 76% 0.00in /  0mm 0 W/m2
23:49 29.7 °F /  -1.3 °C 23.1 °F /  -4.9 °C 30.01in /  1016.1hPa East 18.0mph /  29km/h 25.0mph /  40.2km/h 76% 0.00in /  0mm 0 W/m2
23:54 29.7 °F /  -1.3 °C 23.1 °F /  -4.9 °C 30.01in /  1016.1hPa East 15.0mph /  24.1km/h 25.0mph /  40.2km/h 76% 0.00in /  0mm 0 W/m2
23:59 29.7 °F /  -1.3 °C 23.1 °F /  -4.9 °C 30.00in /  1015.8hPa ESE 15.0mph /  24.1km/h 26.0mph /  41.8km/h 76% 0.00in /  0mm 0 W/m2
Bismarck, North Dakota, USA
Compliments of Weather Underground - 4 mb